createdAt,value
2022-11-20T00:01:24.498Z,75.26
2022-11-20T00:03:52.573Z,75.09
2022-11-20T00:06:20.152Z,75.54
2022-11-20T00:08:47.260Z,74.75
2022-11-20T00:11:20.054Z,74.57
2022-11-20T00:13:48.631Z,75.45
2022-11-20T00:16:17.765Z,75.16
2022-11-20T00:18:45.058Z,75.21
2022-11-20T00:21:17.177Z,74.80
2022-11-20T00:23:45.375Z,74.73
2022-11-20T00:26:14.503Z,74.67
2022-11-20T00:28:41.749Z,74.30
2022-11-20T00:31:11.533Z,74.83
2022-11-20T00:33:38.274Z,74.41
2022-11-20T00:36:26.449Z,74.89
2022-11-20T00:38:54.444Z,75.49
2022-11-20T00:41:21.503Z,74.94
2022-11-20T00:43:48.176Z,75.19
2022-11-20T00:46:18.191Z,76.07
2022-11-20T00:48:45.949Z,75.38
2022-11-20T00:51:14.612Z,75.04
2022-11-20T00:53:41.585Z,75.42
2022-11-20T00:56:12.222Z,75.74
2022-11-20T00:58:40.361Z,75.23
2022-11-20T01:01:09.930Z,75.01
2022-11-20T01:03:38.940Z,75.19
2022-11-20T01:06:12.128Z,74.42
2022-11-20T01:08:39.753Z,74.65
2022-11-20T01:11:12.213Z,75.08
2022-11-20T01:13:40.250Z,74.75
2022-11-20T01:16:11.044Z,74.71
2022-11-20T01:18:39.657Z,74.15
2022-11-20T01:21:09.223Z,74.16
2022-11-20T01:23:37.783Z,74.38
2022-11-20T01:26:06.928Z,74.35
2022-11-20T01:28:34.112Z,75.09
2022-11-20T01:31:01.064Z,75.53
2022-11-20T01:33:28.188Z,74.95
2022-11-20T01:36:03.646Z,74.67
2022-11-20T01:38:30.223Z,74.24
2022-11-20T01:40:57.102Z,74.43
2022-11-20T01:43:24.808Z,74.26
2022-11-20T01:46:02.540Z,73.72
2022-11-20T01:48:35.237Z,73.72
2022-11-20T01:51:03.600Z,74.59
2022-11-20T01:53:35.833Z,74.17
2022-11-20T01:56:05.954Z,74.14
2022-11-20T01:58:36.594Z,74.05
2022-11-20T02:01:04.694Z,73.18
2022-11-20T02:03:32.053Z,74.42
2022-11-20T02:06:11.638Z,74.19
2022-11-20T02:08:39.694Z,73.99
2022-11-20T02:11:06.546Z,73.77
2022-11-20T02:13:44.268Z,74.48
2022-11-20T02:16:31.278Z,74.28
2022-11-20T02:19:01.399Z,74.02
2022-11-20T02:21:49.381Z,73.62
2022-11-20T02:24:21.046Z,73.99
2022-11-20T02:26:52.946Z,73.83
2022-11-20T02:29:27.731Z,74.66
2022-11-20T02:31:56.539Z,74.73
2022-11-20T02:34:23.332Z,75.04
2022-11-20T02:36:52.733Z,75.98
2022-11-20T02:39:21.992Z,76.74
2022-11-20T02:41:48.801Z,76.37
2022-11-20T02:44:15.496Z,76.29
2022-11-20T02:46:42.071Z,76.31
2022-11-20T02:49:08.785Z,76.95
2022-11-20T02:51:35.483Z,76.60
2022-11-20T02:54:02.025Z,77.60
2022-11-20T02:56:28.728Z,77.94
2022-11-20T02:58:56.698Z,77.66
2022-11-20T03:01:23.483Z,78.15
2022-11-20T03:03:50.188Z,77.69
2022-11-20T03:06:17.749Z,78.28
2022-11-20T03:08:44.804Z,77.75
2022-11-20T03:11:11.533Z,78.32
2022-11-20T03:13:38.396Z,77.88
2022-11-20T03:16:16.676Z,77.34
2022-11-20T03:18:43.852Z,77.70
2022-11-20T03:21:11.897Z,76.58
2022-11-20T03:23:39.169Z,76.85
2022-11-20T03:26:26.066Z,76.97
2022-11-20T03:28:57.618Z,77.50
2022-11-20T03:31:26.918Z,77.04
2022-11-20T03:33:53.680Z,76.92
2022-11-20T03:36:21.452Z,77.56
2022-11-20T03:38:49.102Z,76.99
2022-11-20T03:41:20.942Z,78.01
2022-11-20T03:43:58.465Z,77.45
2022-11-20T03:46:25.749Z,76.96
2022-11-20T03:48:52.476Z,77.44
2022-11-20T03:51:24.199Z,77.14
2022-11-20T03:53:53.026Z,77.93
2022-11-20T03:56:23.273Z,77.57
2022-11-20T03:58:49.802Z,77.65
2022-11-20T04:01:19.964Z,77.51
2022-11-20T04:03:47.263Z,78.16
2022-11-20T04:06:22.853Z,78.32
2022-11-20T04:08:53.535Z,78.77
2022-11-20T04:11:21.976Z,78.41
2022-11-20T04:13:51.644Z,78.33
2022-11-20T04:16:18.994Z,78.57
2022-11-20T04:18:45.908Z,78.82
2022-11-20T04:21:12.922Z,79.09
2022-11-20T04:23:40.144Z,78.81
2022-11-20T04:26:09.492Z,80.00
2022-11-20T04:28:36.674Z,78.95
2022-11-20T04:31:08.010Z,79.02
2022-11-20T04:33:35.726Z,79.42
2022-11-20T04:36:12.179Z,79.47
2022-11-20T04:38:39.340Z,80.10
2022-11-20T04:41:08.284Z,79.83
2022-11-20T04:43:35.510Z,80.04
2022-11-20T04:46:02.432Z,79.79
2022-11-20T04:48:30.710Z,80.29
2022-11-20T04:50:57.783Z,79.82
2022-11-20T04:53:24.753Z,80.50
2022-11-20T04:55:51.312Z,81.23
2022-11-20T04:58:18.212Z,81.28
2022-11-20T05:00:44.802Z,80.72
2022-11-20T05:03:11.462Z,80.72
2022-11-20T05:05:38.165Z,79.83
2022-11-20T05:08:05.035Z,80.09
2022-11-20T05:10:31.579Z,80.17
2022-11-20T05:12:58.671Z,79.83
2022-11-20T05:15:25.416Z,79.63
2022-11-20T05:17:53.356Z,79.69
2022-11-20T05:20:20.690Z,80.60
2022-11-20T05:22:47.217Z,80.15
2022-11-20T05:25:13.919Z,80.56
2022-11-20T05:27:40.478Z,80.01
2022-11-20T05:30:08.552Z,80.59
2022-11-20T05:32:35.108Z,80.54
2022-11-20T05:35:01.757Z,80.51
2022-11-20T05:37:28.276Z,79.83
2022-11-20T05:39:54.787Z,80.15
2022-11-20T05:42:33.183Z,80.55
2022-11-20T05:45:05.522Z,80.48
2022-11-20T05:47:34.104Z,80.16
2022-11-20T05:50:01.376Z,80.29
2022-11-20T05:52:30.915Z,80.54
2022-11-20T05:54:58.290Z,80.25
2022-11-20T05:57:25.048Z,79.66
2022-11-20T05:59:51.605Z,80.48
2022-11-20T06:02:18.407Z,79.75
2022-11-20T06:04:45.078Z,80.18
2022-11-20T06:07:11.707Z,80.26
2022-11-20T06:09:38.277Z,79.99
2022-11-20T06:12:05.180Z,79.70
2022-11-20T06:14:31.853Z,80.54
2022-11-20T06:16:58.458Z,79.87
2022-11-20T06:19:25.071Z,79.50
2022-11-20T06:21:51.855Z,79.93
2022-11-20T06:24:18.735Z,80.18
2022-11-20T06:26:45.880Z,80.08
2022-11-20T06:29:13.053Z,80.55
2022-11-20T06:31:40.134Z,80.85
2022-11-20T06:34:07.784Z,80.95
2022-11-20T06:36:34.700Z,79.99
2022-11-20T06:39:01.730Z,81.01
2022-11-20T06:41:29.374Z,80.63
2022-11-20T06:43:55.990Z,79.94
2022-11-20T06:46:23.153Z,80.29
2022-11-20T06:48:50.478Z,79.95
2022-11-20T06:51:17.826Z,80.79
2022-11-20T06:53:44.473Z,80.01
2022-11-20T06:56:11.080Z,79.20
2022-11-20T06:58:38.087Z,79.26
2022-11-20T07:01:07.401Z,79.11
2022-11-20T07:03:34.250Z,79.27
2022-11-20T07:06:02.198Z,79.54
2022-11-20T07:08:29.332Z,79.14
2022-11-20T07:11:04.644Z,78.85
2022-11-20T07:13:31.976Z,79.31
2022-11-20T07:16:07.677Z,78.77
2022-11-20T07:18:34.653Z,78.98
2022-11-20T07:21:06.175Z,79.32
2022-11-20T07:23:33.117Z,79.27
2022-11-20T07:26:04.092Z,79.43
2022-11-20T07:28:30.578Z,78.68
2022-11-20T07:30:57.176Z,79.07
2022-11-20T07:33:24.280Z,78.91
2022-11-20T07:35:50.790Z,79.68
2022-11-20T07:38:17.491Z,79.55
2022-11-20T07:40:44.221Z,79.73
2022-11-20T07:43:11.180Z,79.36
2022-11-20T07:45:37.804Z,79.42
2022-11-20T07:48:04.665Z,79.15
2022-11-20T07:50:31.267Z,79.21
2022-11-20T07:53:07.736Z,79.31
2022-11-20T07:55:34.704Z,77.83
2022-11-20T07:58:01.294Z,79.16
2022-11-20T08:00:28.035Z,78.29
2022-11-20T08:02:54.974Z,78.27
2022-11-20T08:05:21.523Z,77.33
2022-11-20T08:07:48.496Z,78.15
2022-11-20T08:10:17.235Z,76.97
2022-11-20T08:13:07.525Z,76.92
2022-11-20T08:15:34.607Z,77.50
2022-11-20T08:20:56.559Z,76.34
2022-11-20T08:23:23.820Z,76.94
2022-11-20T08:25:51.112Z,76.79
2022-11-20T08:28:21.427Z,75.75
2022-11-20T08:30:49.264Z,76.34
2022-11-20T08:33:15.857Z,75.59
2022-11-20T08:35:43.555Z,75.79
2022-11-20T08:38:10.687Z,75.56
2022-11-20T08:40:37.284Z,76.51
2022-11-20T08:43:03.972Z,76.82
2022-11-20T08:45:33.981Z,75.17
2022-11-20T08:48:02.643Z,74.82
2022-11-20T08:50:29.373Z,74.97
2022-11-20T08:52:55.976Z,75.50
2022-11-20T08:55:22.516Z,74.80
2022-11-20T08:57:50.956Z,75.44
2022-11-20T09:00:18.228Z,73.44
2022-11-20T09:02:44.821Z,74.27
2022-11-20T09:05:11.397Z,75.48
2022-11-20T09:07:38.022Z,75.34
2022-11-20T09:10:23.003Z,74.65
2022-11-20T09:12:50.529Z,74.41
2022-11-20T09:15:17.098Z,75.58
2022-11-20T09:17:43.638Z,75.29
2022-11-20T09:20:10.722Z,75.21
2022-11-20T09:22:40.786Z,74.99
2022-11-20T09:25:07.663Z,74.43
2022-11-20T09:27:34.294Z,73.40
2022-11-20T09:30:00.884Z,73.86
2022-11-20T09:32:27.411Z,73.42
2022-11-20T09:34:53.904Z,72.54
2022-11-20T09:37:20.467Z,72.47
2022-11-20T09:39:46.970Z,73.84
2022-11-20T09:42:31.485Z,73.05
2022-11-20T09:45:19.143Z,74.29
2022-11-20T09:48:02.441Z,73.25
2022-11-20T09:50:56.943Z,73.99
2022-11-20T09:53:26.231Z,74.07
2022-11-20T09:55:52.857Z,73.14
2022-11-20T09:58:33.380Z,71.34
2022-11-20T10:01:11.627Z,71.92
2022-11-20T10:04:05.934Z,69.68
2022-11-20T10:06:33.607Z,68.83
2022-11-20T10:09:20.612Z,70.66
2022-11-20T10:12:05.896Z,70.63
2022-11-20T10:14:48.494Z,69.57
2022-11-20T10:17:34.931Z,69.92
2022-11-20T10:20:26.623Z,69.80
2022-11-20T10:23:15.037Z,71.19
2022-11-20T10:25:50.615Z,71.09
2022-11-20T10:28:26.843Z,70.37
2022-11-20T10:31:04.891Z,69.56
2022-11-20T10:33:50.417Z,69.04
2022-11-20T10:36:42.921Z,66.24
2022-11-20T10:39:28.015Z,67.34
2022-11-20T10:41:54.816Z,66.60
2022-11-20T10:44:45.236Z,68.21
2022-11-20T10:47:17.417Z,69.03
2022-11-20T10:49:49.476Z,68.35
2022-11-20T10:52:48.780Z,67.65
2022-11-20T10:55:40.169Z,69.07
2022-11-20T10:58:36.323Z,66.36
2022-11-20T11:01:24.366Z,68.57
2022-11-20T11:03:54.343Z,69.36
2022-11-20T11:06:43.030Z,68.68
2022-11-20T11:09:20.391Z,68.10
2022-11-20T11:11:47.252Z,68.73
2022-11-20T11:14:16.117Z,68.21
2022-11-20T11:16:57.272Z,67.47
2022-11-20T11:19:24.798Z,68.62
2022-11-20T11:21:55.781Z,68.96
2022-11-20T11:24:45.737Z,68.07
2022-11-20T11:27:18.023Z,68.09
2022-11-20T11:29:45.438Z,69.04
2022-11-20T11:32:21.580Z,69.57
2022-11-20T11:35:25.217Z,67.91
2022-11-20T11:37:55.070Z,68.42
2022-11-20T11:40:24.620Z,67.98
2022-11-20T11:43:02.297Z,67.57
2022-11-20T11:45:29.531Z,66.22
2022-11-20T11:47:59.603Z,67.52
2022-11-20T11:50:28.186Z,67.52
2022-11-20T11:53:13.162Z,66.66
2022-11-20T11:55:51.648Z,66.69
2022-11-20T11:58:35.823Z,65.05
2022-11-20T12:01:28.841Z,64.28
2022-11-20T12:04:11.300Z,66.77
2022-11-20T12:06:40.234Z,66.46
2022-11-20T12:09:11.172Z,65.55
2022-11-20T12:12:05.983Z,64.50
2022-11-20T12:14:40.378Z,67.09
2022-11-20T12:17:11.861Z,67.73
2022-11-20T12:19:38.585Z,67.24
2022-11-20T12:22:41.924Z,68.29
2022-11-20T12:25:16.748Z,68.73
2022-11-20T12:28:07.216Z,68.87
2022-11-20T12:30:39.584Z,68.81
2022-11-20T12:33:18.431Z,67.86
2022-11-20T12:35:57.146Z,68.62
2022-11-20T12:38:49.295Z,69.35
2022-11-20T12:41:40.297Z,68.59
2022-11-20T12:45:00.043Z,68.43
2022-11-20T12:48:00.341Z,69.08
2022-11-20T12:51:15.945Z,68.41
2022-11-20T12:53:45.490Z,69.27
2022-11-20T12:56:17.720Z,70.37
2022-11-20T12:59:08.688Z,69.88
2022-11-20T13:01:51.339Z,70.08
2022-11-20T13:04:31.350Z,69.84
2022-11-20T13:06:58.687Z,69.78
2022-11-20T13:09:26.003Z,70.49
2022-11-20T13:12:09.857Z,70.64
2022-11-20T13:14:46.189Z,70.70
2022-11-20T13:17:19.068Z,70.99
2022-11-20T13:19:57.073Z,71.18
2022-11-20T13:22:44.224Z,69.84
2022-11-20T13:25:16.294Z,69.49
2022-11-20T13:27:50.156Z,68.41
2022-11-20T13:30:19.835Z,68.56
2022-11-20T13:33:09.490Z,67.10
2022-11-20T13:35:41.405Z,68.18
2022-11-20T13:38:12.426Z,68.41
2022-11-20T13:40:52.934Z,68.06
2022-11-20T13:43:30.080Z,68.22
2022-11-20T13:46:06.180Z,68.63
2022-11-20T13:48:42.366Z,69.75
2022-11-20T13:51:27.539Z,69.72
2022-11-20T13:54:06.106Z,69.58
2022-11-20T13:56:48.939Z,69.09
2022-11-20T13:59:47.278Z,69.41
2022-11-20T14:02:23.122Z,69.71
2022-11-20T14:04:53.161Z,70.21
2022-11-20T14:07:24.699Z,70.50
2022-11-20T14:09:58.828Z,70.57
2022-11-20T14:12:35.260Z,71.00
2022-11-20T14:15:01.961Z,70.82
2022-11-20T14:17:36.386Z,70.08
2022-11-20T14:20:06.022Z,71.73
2022-11-20T14:22:32.733Z,70.95
2022-11-20T14:25:13.049Z,71.58
2022-11-20T14:27:42.849Z,71.71
2022-11-20T14:30:18.098Z,72.34
2022-11-20T14:32:45.963Z,72.69
2022-11-20T14:35:22.672Z,72.40
2022-11-20T14:37:49.416Z,72.77
2022-11-20T14:40:28.228Z,72.60
2022-11-20T14:42:54.960Z,73.26
2022-11-20T14:45:22.962Z,73.51
2022-11-20T14:47:50.431Z,73.64
2022-11-20T14:50:24.804Z,73.57
2022-11-20T14:53:09.474Z,74.22
2022-11-20T14:55:39.640Z,73.90
2022-11-20T14:58:21.239Z,73.99
2022-11-20T15:00:59.999Z,74.54
2022-11-20T15:03:38.298Z,74.53
2022-11-20T15:06:07.148Z,75.35
2022-11-20T15:08:35.034Z,75.26
2022-11-20T15:11:01.699Z,75.52
2022-11-20T15:13:31.940Z,75.46
2022-11-20T15:16:02.634Z,76.16
2022-11-20T15:18:33.332Z,76.38
2022-11-20T15:21:04.319Z,77.29
2022-11-20T15:23:30.929Z,77.24
2022-11-20T15:25:57.692Z,77.76
2022-11-20T15:28:32.738Z,78.17
2022-11-20T15:30:59.436Z,78.09
2022-11-20T15:33:25.964Z,78.54
2022-11-20T15:35:52.754Z,78.46
2022-11-20T15:38:19.365Z,78.45
2022-11-20T15:40:45.913Z,78.77
2022-11-20T15:43:13.858Z,79.29
2022-11-20T15:45:50.545Z,79.21
2022-11-20T15:48:27.402Z,78.34
2022-11-20T15:51:12.341Z,78.16
2022-11-20T15:53:41.136Z,78.78
2022-11-20T15:56:12.660Z,78.16
2022-11-20T15:58:39.701Z,77.79
2022-11-20T16:01:06.416Z,78.29
2022-11-20T16:03:32.971Z,78.70
2022-11-20T16:05:59.511Z,77.90
2022-11-20T16:08:26.435Z,78.27
2022-11-20T16:10:53.007Z,78.91
2022-11-20T16:13:37.847Z,79.44
2022-11-20T16:16:12.689Z,78.55
2022-11-20T16:18:39.299Z,79.91
2022-11-20T16:21:11.574Z,79.77
2022-11-20T16:23:38.123Z,79.68
2022-11-20T16:26:12.193Z,78.56
2022-11-20T16:28:38.746Z,78.25
2022-11-20T16:31:13.501Z,78.85
2022-11-20T16:33:40.288Z,78.77
2022-11-20T16:36:15.115Z,78.45
2022-11-20T16:38:42.194Z,78.18
2022-11-20T16:41:18.591Z,78.66
2022-11-20T16:43:50.498Z,78.59
2022-11-20T16:46:19.173Z,78.67
2022-11-20T16:48:46.774Z,78.77
2022-11-20T16:51:13.366Z,79.28
2022-11-20T16:53:40.846Z,79.43
2022-11-20T16:56:17.342Z,78.79
2022-11-20T16:58:44.887Z,78.48
2022-11-20T17:01:14.625Z,79.28
2022-11-20T17:03:42.728Z,80.65
2022-11-20T17:06:14.506Z,79.77
2022-11-20T17:08:41.480Z,80.23
2022-11-20T17:11:09.685Z,80.40
2022-11-20T17:13:39.974Z,81.28
2022-11-20T17:16:09.493Z,81.20
2022-11-20T17:18:36.553Z,81.62
2022-11-20T17:21:05.516Z,82.17
2022-11-20T17:23:33.423Z,81.67
2022-11-20T17:26:08.310Z,81.91
2022-11-20T17:28:35.804Z,81.91
2022-11-20T17:31:08.354Z,82.30
2022-11-20T17:33:36.892Z,83.63
2022-11-20T17:36:04.816Z,83.45
2022-11-20T17:38:31.501Z,83.20
2022-11-20T17:41:06.335Z,82.88
2022-11-20T17:43:35.882Z,82.34
2022-11-20T17:46:14.440Z,82.02
2022-11-20T17:48:45.143Z,82.11
2022-11-20T17:51:24.650Z,82.46
2022-11-20T17:53:53.850Z,82.15
2022-11-20T17:56:40.852Z,82.65
2022-11-20T17:59:10.985Z,83.67
2022-11-20T18:01:39.376Z,83.57
2022-11-20T18:04:06.564Z,83.54
2022-11-20T18:06:33.506Z,82.96
2022-11-20T18:09:01.579Z,83.35
2022-11-20T18:11:33.720Z,83.72
2022-11-20T18:14:20.569Z,83.41
2022-11-20T18:16:51.966Z,84.48
2022-11-20T18:19:24.579Z,84.60
2022-11-20T18:21:51.317Z,83.74
2022-11-20T18:24:18.271Z,83.93
2022-11-20T18:26:45.162Z,84.57
2022-11-20T18:29:13.748Z,84.85
2022-11-20T18:31:41.493Z,84.83
2022-11-20T18:34:12.257Z,84.42
2022-11-20T18:36:38.892Z,85.60
2022-11-20T18:39:05.937Z,85.93
2022-11-20T18:41:51.305Z,87.16
2022-11-20T18:44:42.058Z,86.61
2022-11-20T18:47:14.544Z,86.89
2022-11-20T18:49:43.102Z,86.28
2022-11-20T18:52:09.678Z,86.48
2022-11-20T18:54:37.087Z,86.22
2022-11-20T18:57:05.310Z,87.06
2022-11-20T18:59:32.260Z,87.21
2022-11-20T19:01:59.064Z,88.63
2022-11-20T19:04:26.372Z,88.77
2022-11-20T19:06:56.220Z,88.88
2022-11-20T19:09:24.181Z,88.79
2022-11-20T19:11:51.601Z,88.75
2022-11-20T19:14:18.592Z,87.98
2022-11-20T19:16:45.267Z,88.72
2022-11-20T19:19:12.004Z,87.87
2022-11-20T19:21:38.635Z,88.32
2022-11-20T19:24:05.563Z,88.95
2022-11-20T19:26:35.540Z,89.48
2022-11-20T19:29:03.603Z,89.55
2022-11-20T19:31:30.451Z,88.97
2022-11-20T19:34:02.509Z,89.46
2022-11-20T19:36:34.758Z,89.30
2022-11-20T19:39:02.381Z,88.96
2022-11-20T19:41:31.466Z,89.25
2022-11-20T19:43:59.844Z,88.80
2022-11-20T19:46:28.272Z,88.77
2022-11-20T19:48:55.596Z,89.18
2022-11-20T19:51:29.868Z,88.88
2022-11-20T19:53:57.651Z,88.80
2022-11-20T19:56:25.612Z,88.37
2022-11-20T19:58:56.190Z,88.43
2022-11-20T20:01:28.805Z,88.64
2022-11-20T20:03:56.796Z,88.48
2022-11-20T20:06:26.316Z,88.48
2022-11-20T20:09:09.254Z,88.03
2022-11-20T20:11:36.751Z,89.08
2022-11-20T20:14:08.665Z,89.08
2022-11-20T20:16:35.582Z,89.20
2022-11-20T20:19:03.737Z,89.47
2022-11-20T20:21:31.793Z,89.00
2022-11-20T20:24:00.864Z,89.19
2022-11-20T20:26:29.661Z,88.53
2022-11-20T20:28:56.435Z,88.70
2022-11-20T20:31:27.099Z,88.67
2022-11-20T20:33:54.434Z,89.25
2022-11-20T20:36:22.968Z,88.19
2022-11-20T20:38:57.328Z,88.28
2022-11-20T20:41:25.085Z,88.70
2022-11-20T20:44:10.908Z,88.24
2022-11-20T20:46:37.634Z,88.89
2022-11-20T20:49:05.416Z,87.89
2022-11-20T20:51:32.011Z,88.58
2022-11-20T20:53:59.377Z,88.45
2022-11-20T20:56:26.356Z,88.46
2022-11-20T20:58:52.901Z,88.51
2022-11-20T21:01:20.840Z,89.08
2022-11-20T21:03:47.455Z,88.43
2022-11-20T21:06:14.633Z,87.66
2022-11-20T21:08:43.605Z,88.09
2022-11-20T21:11:16.544Z,88.31
2022-11-20T21:13:44.669Z,88.46
2022-11-20T21:16:12.566Z,88.08
2022-11-20T21:18:39.176Z,88.61
2022-11-20T21:21:26.523Z,88.78
2022-11-20T21:23:53.753Z,88.45
2022-11-20T21:26:21.259Z,88.46
2022-11-20T21:28:49.973Z,87.45
2022-11-20T21:31:27.320Z,88.86
2022-11-20T21:33:55.958Z,88.31
2022-11-20T21:36:25.814Z,88.26
2022-11-20T21:38:56.932Z,88.04
2022-11-20T21:41:24.942Z,88.33
2022-11-20T21:44:23.545Z,88.37
2022-11-20T21:46:41.685Z,88.15
2022-11-20T21:49:08.472Z,88.10
2022-11-20T21:51:35.379Z,88.06
2022-11-20T21:54:02.117Z,88.48
2022-11-20T21:56:28.641Z,88.07
2022-11-20T21:58:55.538Z,87.88
2022-11-20T22:01:23.535Z,87.72
2022-11-20T22:03:52.969Z,87.82
2022-11-20T22:06:21.391Z,87.07
2022-11-20T22:08:48.984Z,87.24
2022-11-20T22:11:18.027Z,86.54
2022-11-20T22:14:03.063Z,87.10
2022-11-20T22:16:30.114Z,87.38
2022-11-20T22:18:58.061Z,87.19
2022-11-20T22:21:28.091Z,87.02
2022-11-20T22:23:55.266Z,87.36
2022-11-20T22:26:24.206Z,87.22
2022-11-20T22:28:53.620Z,86.15
2022-11-20T22:31:21.770Z,86.31
2022-11-20T22:33:48.677Z,87.04
2022-11-20T22:36:17.535Z,86.30
2022-11-20T22:38:44.264Z,85.81
2022-11-20T22:41:18.686Z,83.85
2022-11-20T22:43:45.972Z,85.67
2022-11-20T22:46:15.536Z,86.89
2022-11-20T22:48:49.715Z,86.41
2022-11-20T22:51:17.868Z,86.60
2022-11-20T22:53:44.710Z,86.58
2022-11-20T22:56:15.328Z,86.39
2022-11-20T22:58:44.798Z,86.24
2022-11-20T23:01:16.403Z,86.14
2022-11-20T23:03:45.396Z,86.63
2022-11-20T23:06:13.209Z,86.44
2022-11-20T23:08:41.642Z,87.00
2022-11-20T23:11:13.639Z,86.99
2022-11-20T23:13:41.191Z,87.81
2022-11-20T23:16:11.220Z,88.47
2022-11-20T23:18:38.269Z,88.17
2022-11-20T23:21:10.751Z,87.93
2022-11-20T23:23:37.699Z,87.59
2022-11-20T23:26:09.356Z,88.55
2022-11-20T23:28:36.811Z,87.50
2022-11-20T23:31:03.998Z,87.81
2022-11-20T23:33:30.895Z,88.03
2022-11-20T23:35:57.762Z,89.22
2022-11-20T23:38:24.303Z,87.93
2022-11-20T23:40:52.014Z,88.12
2022-11-20T23:43:20.718Z,88.20
2022-11-20T23:45:52.107Z,88.15
2022-11-20T23:48:20.117Z,87.42
2022-11-20T23:50:46.900Z,87.73
2022-11-20T23:53:14.671Z,88.02
2022-11-20T23:55:46.605Z,87.31
2022-11-20T23:58:13.931Z,86.83
